createdAt,value
2022-08-03T00:00:28.376Z,19.75
2022-08-03T00:02:55.475Z,19.52
2022-08-03T00:05:22.473Z,19.50
2022-08-03T00:07:49.470Z,19.33
2022-08-03T00:10:17.166Z,19.29
2022-08-03T00:12:44.170Z,19.29
2022-08-03T00:15:16.474Z,19.47
2022-08-03T00:17:52.902Z,19.10
2022-08-03T00:20:21.783Z,19.05
2022-08-03T00:22:49.482Z,19.18
2022-08-03T00:25:16.875Z,18.90
2022-08-03T00:27:43.653Z,19.43
2022-08-03T00:30:10.635Z,19.17
2022-08-03T00:32:38.831Z,18.86
2022-08-03T00:35:20.456Z,18.79
2022-08-03T00:37:59.865Z,18.74
2022-08-03T00:40:27.029Z,18.67
2022-08-03T00:42:54.998Z,19.19
2022-08-03T00:45:24.167Z,18.64
2022-08-03T00:47:51.594Z,18.71
2022-08-03T00:50:19.870Z,18.84
2022-08-03T00:52:51.938Z,18.82
2022-08-03T00:55:18.829Z,18.71
2022-08-03T00:57:45.727Z,18.88
2022-08-03T01:00:15.443Z,18.54
2022-08-03T01:02:42.532Z,18.74
2022-08-03T01:05:10.760Z,18.63
2022-08-03T01:07:55.739Z,18.95
2022-08-03T01:10:26.709Z,18.50
2022-08-03T01:14:01.747Z,18.88
2022-08-03T01:16:36.713Z,18.33
2022-08-03T01:19:22.564Z,18.85
2022-08-03T01:22:07.571Z,18.73
2022-08-03T01:24:51.457Z,18.46
2022-08-03T01:27:43.036Z,18.05
2022-08-03T01:30:12.658Z,18.19
2022-08-03T01:33:00.753Z,18.11
2022-08-03T01:35:52.154Z,18.05
2022-08-03T01:38:36.098Z,18.11
2022-08-03T01:41:11.064Z,17.98
2022-08-03T01:44:27.508Z,17.74
2022-08-03T01:46:28.888Z,17.79
2022-08-03T01:48:57.376Z,17.64
2022-08-03T01:51:58.663Z,17.89
2022-08-03T01:54:14.795Z,17.56
2022-08-03T01:56:43.839Z,17.47
2022-08-03T01:59:12.805Z,17.55
2022-08-03T02:02:15.294Z,17.71
2022-08-03T02:04:29.564Z,17.46
2022-08-03T02:07:01.238Z,17.39
2022-08-03T02:09:31.224Z,17.39
2022-08-03T02:11:59.225Z,17.35
2022-08-03T02:14:28.436Z,17.34
2022-08-03T02:16:58.691Z,17.48
2022-08-03T02:19:30.412Z,17.62
2022-08-03T02:22:01.913Z,17.74
2022-08-03T02:24:30.114Z,17.66
2022-08-03T02:26:57.703Z,17.93
2022-08-03T02:29:38.785Z,17.79
2022-08-03T02:32:12.654Z,17.59
2022-08-03T02:34:42.641Z,17.44
2022-08-03T02:37:13.211Z,17.41
2022-08-03T02:39:42.958Z,17.42
2022-08-03T02:42:12.804Z,17.35
2022-08-03T02:44:47.766Z,17.38
2022-08-03T02:47:15.784Z,17.36
2022-08-03T02:49:51.076Z,17.10
2022-08-03T02:52:21.753Z,17.20
2022-08-03T02:54:51.322Z,17.47
2022-08-03T02:57:20.063Z,17.28
2022-08-03T02:59:47.811Z,17.46
2022-08-03T03:02:17.336Z,16.90
2022-08-03T03:05:51.720Z,16.87
2022-08-03T03:07:39.137Z,17.14
2022-08-03T03:10:21.545Z,17.21
2022-08-03T03:12:52.280Z,16.98
2022-08-03T03:15:19.221Z,17.22
2022-08-03T03:17:47.813Z,17.07
2022-08-03T03:20:16.039Z,17.05
2022-08-03T03:22:56.640Z,17.13
2022-08-03T03:25:24.719Z,17.21
2022-08-03T03:27:51.798Z,17.11
2022-08-03T03:30:22.012Z,16.91
2022-08-03T03:32:49.137Z,16.88
2022-08-03T03:35:16.833Z,16.70
2022-08-03T03:37:43.627Z,17.07
2022-08-03T03:40:14.503Z,16.91
2022-08-03T03:42:41.607Z,16.86
2022-08-03T03:45:09.169Z,16.95
2022-08-03T03:47:36.144Z,16.90
2022-08-03T03:50:04.807Z,16.51
2022-08-03T03:52:32.883Z,16.66
2022-08-03T03:55:01.243Z,17.06
2022-08-03T03:57:29.405Z,16.65
2022-08-03T03:59:56.492Z,16.92
2022-08-03T04:02:23.479Z,16.55
2022-08-03T04:05:08.694Z,16.42
2022-08-03T04:08:22.322Z,16.60
2022-08-03T04:11:03.010Z,16.65
2022-08-03T04:13:37.015Z,16.80
2022-08-03T04:16:05.313Z,16.58
2022-08-03T04:18:34.848Z,16.83
2022-08-03T04:21:08.735Z,16.90
2022-08-03T04:23:40.177Z,17.22
2022-08-03T04:26:10.035Z,16.79
2022-08-03T04:28:39.975Z,16.82
2022-08-03T04:31:07.444Z,17.06
2022-08-03T04:33:37.347Z,16.95
2022-08-03T04:36:09.124Z,16.96
2022-08-03T04:38:44.546Z,16.84
2022-08-03T04:41:13.090Z,16.77
2022-08-03T04:43:41.883Z,17.18
2022-08-03T04:46:09.338Z,17.36
2022-08-03T04:48:36.359Z,17.19
2022-08-03T04:51:04.575Z,17.30
2022-08-03T04:53:31.426Z,17.74
2022-08-03T04:56:07.408Z,17.50
2022-08-03T04:58:34.179Z,17.94
2022-08-03T05:01:00.925Z,17.93
2022-08-03T05:03:27.683Z,18.10
2022-08-03T05:06:01.980Z,18.02
2022-08-03T05:08:41.129Z,18.12
2022-08-03T05:11:14.115Z,18.43
2022-08-03T05:13:40.832Z,18.46
2022-08-03T05:16:07.824Z,18.39
2022-08-03T05:18:36.064Z,18.63
2022-08-03T05:21:02.938Z,19.21
2022-08-03T05:23:29.672Z,18.91
2022-08-03T05:25:58.691Z,19.28
2022-08-03T05:28:25.440Z,19.01
2022-08-03T05:30:52.394Z,19.39
2022-08-03T05:33:19.288Z,19.35
2022-08-03T05:35:56.016Z,19.65
2022-08-03T05:38:34.316Z,19.33
2022-08-03T05:41:21.699Z,19.32
2022-08-03T05:43:54.733Z,19.99
2022-08-03T05:46:23.456Z,19.65
2022-08-03T05:48:50.547Z,20.23
2022-08-03T05:51:17.570Z,20.20
2022-08-03T05:53:44.932Z,20.35
2022-08-03T05:56:15.357Z,20.52
2022-08-03T05:58:52.635Z,20.48
2022-08-03T06:01:22.045Z,20.45
2022-08-03T06:03:50.263Z,20.58
2022-08-03T06:06:17.365Z,20.89
2022-08-03T06:08:45.637Z,20.86
2022-08-03T06:11:13.373Z,21.43
2022-08-03T06:13:42.327Z,21.37
2022-08-03T06:16:09.766Z,21.54
2022-08-03T06:18:37.350Z,21.48
2022-08-03T06:21:14.292Z,21.80
2022-08-03T06:23:53.090Z,22.19
2022-08-03T06:26:21.021Z,21.97
2022-08-03T06:28:52.482Z,22.06
2022-08-03T06:31:32.385Z,22.03
2022-08-03T06:34:31.654Z,22.20
2022-08-03T06:36:52.614Z,22.38
2022-08-03T06:39:19.986Z,22.51
2022-08-03T06:41:46.837Z,22.59
2022-08-03T06:44:13.748Z,22.81
2022-08-03T06:46:40.849Z,23.02
2022-08-03T06:49:08.344Z,23.21
2022-08-03T06:52:05.914Z,22.98
2022-08-03T06:54:24.857Z,23.29
2022-08-03T06:56:52.171Z,23.16
2022-08-03T07:00:06.438Z,23.27
2022-08-03T07:02:06.112Z,23.07
2022-08-03T07:04:33.463Z,23.22
2022-08-03T07:07:02.933Z,23.26
2022-08-03T07:09:29.822Z,23.28
2022-08-03T07:11:57.206Z,23.34
2022-08-03T07:14:24.149Z,23.49
2022-08-03T07:16:51.078Z,23.94
2022-08-03T07:19:18.045Z,23.52
2022-08-03T07:21:46.002Z,23.49
2022-08-03T07:24:13.021Z,23.67
2022-08-03T07:26:39.895Z,24.02
2022-08-03T07:29:11.743Z,23.95
2022-08-03T07:31:42.809Z,23.91
2022-08-03T07:34:09.702Z,24.14
2022-08-03T07:36:36.547Z,24.39
2022-08-03T07:39:15.820Z,24.44
2022-08-03T07:41:45.178Z,24.08
2022-08-03T07:44:11.902Z,24.32
2022-08-03T07:46:38.729Z,24.52
2022-08-03T07:49:06.087Z,24.41
2022-08-03T07:51:32.895Z,24.69
2022-08-03T07:54:01.020Z,24.97
2022-08-03T07:56:28.350Z,24.91
2022-08-03T07:58:55.740Z,25.01
2022-08-03T08:01:23.640Z,24.92
2022-08-03T08:03:53.250Z,24.89
2022-08-03T08:06:21.504Z,25.16
2022-08-03T08:08:48.652Z,25.54
2022-08-03T08:11:15.659Z,25.25
2022-08-03T08:13:42.569Z,25.73
2022-08-03T08:16:09.679Z,25.55
2022-08-03T08:18:36.784Z,25.43
2022-08-03T08:21:03.812Z,25.77
2022-08-03T08:23:43.434Z,25.62
2022-08-03T08:26:11.811Z,25.78
2022-08-03T08:28:38.579Z,25.98
2022-08-03T08:31:05.236Z,25.87
2022-08-03T08:33:48.343Z,25.78
2022-08-03T08:36:19.814Z,25.91
2022-08-03T08:38:46.702Z,25.93
2022-08-03T08:41:15.095Z,25.86
2022-08-03T08:43:42.915Z,25.84
2022-08-03T08:46:23.560Z,26.00
2022-08-03T08:48:51.933Z,25.93
2022-08-03T08:51:21.134Z,26.02
2022-08-03T08:53:53.955Z,26.54
2022-08-03T08:56:25.680Z,26.63
2022-08-03T08:58:57.030Z,26.66
2022-08-03T09:01:24.138Z,26.45
2022-08-03T09:03:51.475Z,26.65
2022-08-03T09:06:18.406Z,26.36
2022-08-03T09:08:45.259Z,26.77
2022-08-03T09:11:12.344Z,26.83
2022-08-03T09:13:40.043Z,26.87
2022-08-03T09:16:21.248Z,26.92
2022-08-03T09:18:51.104Z,27.02
2022-08-03T09:21:34.148Z,27.28
2022-08-03T09:24:04.761Z,27.04
2022-08-03T09:26:35.187Z,27.34
2022-08-03T09:29:13.483Z,27.30
2022-08-03T09:31:46.616Z,27.23
2022-08-03T09:34:16.781Z,27.28
2022-08-03T09:36:49.548Z,27.47
2022-08-03T09:39:18.613Z,27.49
2022-08-03T09:41:49.138Z,27.65
2022-08-03T09:44:25.130Z,27.83
2022-08-03T09:46:56.767Z,28.12
2022-08-03T09:49:24.979Z,28.11
2022-08-03T09:52:33.195Z,28.32
2022-08-03T09:54:43.588Z,28.26
2022-08-03T09:57:24.886Z,28.27
2022-08-03T10:00:02.999Z,28.25
2022-08-03T10:02:33.235Z,28.30
2022-08-03T10:04:59.925Z,28.53
2022-08-03T10:07:27.427Z,28.52
2022-08-03T10:09:56.830Z,28.83
2022-08-03T10:12:25.004Z,28.86
2022-08-03T10:14:52.969Z,28.73
2022-08-03T10:17:21.050Z,28.67
2022-08-03T10:19:49.173Z,29.07
2022-08-03T10:22:32.676Z,28.90
2022-08-03T10:25:11.703Z,29.03
2022-08-03T10:27:42.480Z,29.09
2022-08-03T10:30:13.132Z,28.86
2022-08-03T10:32:55.583Z,28.57
2022-08-03T10:35:24.272Z,28.88
2022-08-03T10:38:03.501Z,28.91
2022-08-03T10:40:47.951Z,29.09
2022-08-03T10:43:26.344Z,28.71
2022-08-03T10:45:53.625Z,28.63
2022-08-03T10:48:21.570Z,28.71
2022-08-03T10:50:50.602Z,28.81
2022-08-03T10:53:35.122Z,28.86
2022-08-03T10:56:27.413Z,28.93
2022-08-03T10:59:08.908Z,29.30
2022-08-03T11:02:00.288Z,29.43
2022-08-03T11:04:30.011Z,29.07
2022-08-03T11:07:16.125Z,29.59
2022-08-03T11:09:45.367Z,29.48
2022-08-03T11:12:31.390Z,29.61
2022-08-03T11:15:32.551Z,29.73
2022-08-03T11:18:11.109Z,29.48
2022-08-03T11:20:53.488Z,29.83
2022-08-03T11:24:02.759Z,29.72
2022-08-03T11:26:29.769Z,29.72
2022-08-03T11:29:29.903Z,29.65
2022-08-03T11:31:57.560Z,29.94
2022-08-03T11:34:24.966Z,29.98
2022-08-03T11:37:26.387Z,30.16
2022-08-03T11:39:57.345Z,30.04
2022-08-03T11:42:24.087Z,30.24
2022-08-03T11:44:55.931Z,30.15
2022-08-03T11:47:26.967Z,30.27
2022-08-03T11:49:59.259Z,30.49
2022-08-03T11:52:28.771Z,30.42
2022-08-03T11:54:57.197Z,30.45
2022-08-03T11:59:01.446Z,30.43
2022-08-03T12:00:26.024Z,30.65
2022-08-03T12:03:09.499Z,30.83
2022-08-03T12:05:41.775Z,30.58
2022-08-03T12:08:30.289Z,31.00
2022-08-03T12:11:00.122Z,31.11
2022-08-03T12:14:44.309Z,31.24
2022-08-03T12:16:19.716Z,31.33
2022-08-03T12:18:56.874Z,31.34
2022-08-03T12:21:25.020Z,31.14
2022-08-03T12:23:56.098Z,31.42
2022-08-03T12:26:22.871Z,31.84
2022-08-03T12:28:50.175Z,31.54
2022-08-03T12:31:17.129Z,31.73
2022-08-03T12:34:06.561Z,32.01
2022-08-03T12:36:34.905Z,31.86
2022-08-03T12:39:05.063Z,32.21
2022-08-03T12:41:34.780Z,32.06
2022-08-03T12:44:06.381Z,31.98
2022-08-03T12:46:41.623Z,32.07
2022-08-03T12:49:15.625Z,32.30
2022-08-03T12:51:42.466Z,32.56
2022-08-03T12:54:15.870Z,32.11
2022-08-03T12:57:07.018Z,32.58
2022-08-03T12:59:41.316Z,32.47
2022-08-03T13:02:24.071Z,32.38
2022-08-03T13:04:53.243Z,32.64
2022-08-03T13:07:20.974Z,32.50
2022-08-03T13:09:50.932Z,32.85
2022-08-03T13:12:20.989Z,32.84
2022-08-03T13:14:50.841Z,32.77
2022-08-03T13:17:18.374Z,32.93
2022-08-03T13:19:46.763Z,33.08
2022-08-03T13:22:22.310Z,33.16
2022-08-03T13:24:51.760Z,33.26
2022-08-03T13:28:00.949Z,33.24
2022-08-03T13:30:06.943Z,33.17
2022-08-03T13:32:34.303Z,33.41
2022-08-03T13:35:02.810Z,33.45
2022-08-03T13:37:32.180Z,33.49
2022-08-03T13:40:02.581Z,33.68
2022-08-03T13:42:31.707Z,33.33
2022-08-03T13:44:59.418Z,33.36
2022-08-03T13:47:26.665Z,33.31
2022-08-03T13:50:00.174Z,33.64
2022-08-03T13:52:36.638Z,33.64
2022-08-03T13:55:05.998Z,33.87
2022-08-03T13:58:19.024Z,34.09
2022-08-03T14:00:26.608Z,34.08
2022-08-03T14:03:13.394Z,34.08
2022-08-03T14:05:42.690Z,34.37
2022-08-03T14:08:09.776Z,33.94
2022-08-03T14:10:39.167Z,34.47
2022-08-03T14:13:10.590Z,34.60
2022-08-03T14:15:38.530Z,34.52
2022-08-03T14:18:12.598Z,34.39
2022-08-03T14:20:47.806Z,34.55
2022-08-03T14:23:17.554Z,34.46
2022-08-03T14:25:51.883Z,34.76
2022-08-03T14:28:23.075Z,34.86
2022-08-03T14:30:54.656Z,34.34
2022-08-03T14:33:21.568Z,34.92
2022-08-03T14:35:48.793Z,34.70
2022-08-03T14:38:15.891Z,34.11
2022-08-03T14:40:42.864Z,34.30
2022-08-03T14:43:09.574Z,34.75
2022-08-03T14:45:36.247Z,35.21
2022-08-03T14:49:02.621Z,35.79
2022-08-03T14:50:52.772Z,38.17
2022-08-03T14:53:20.109Z,39.96
2022-08-03T14:55:50.607Z,41.82
2022-08-03T14:58:20.674Z,43.82
2022-08-03T15:00:48.881Z,45.22
2022-08-03T15:03:16.854Z,46.93
2022-08-03T15:05:44.393Z,48.41
2022-08-03T15:08:11.201Z,48.02
2022-08-03T15:10:44.440Z,47.66
2022-08-03T15:13:13.227Z,49.27
2022-08-03T15:15:40.529Z,48.53
2022-08-03T15:18:07.683Z,51.05
2022-08-03T15:20:49.914Z,50.21
2022-08-03T15:23:17.504Z,50.17
2022-08-03T15:26:04.294Z,50.58
2022-08-03T15:28:32.411Z,51.74
2022-08-03T15:30:59.341Z,50.63
2022-08-03T15:33:27.543Z,51.87
2022-08-03T15:35:54.300Z,52.04
2022-08-03T15:38:25.851Z,51.69
2022-08-03T15:40:56.995Z,50.87
2022-08-03T15:43:24.131Z,51.24
2022-08-03T15:46:12.638Z,52.53
2022-08-03T15:48:38.225Z,52.43
2022-08-03T15:51:06.158Z,51.34
2022-08-03T15:53:33.789Z,51.53
2022-08-03T15:56:02.024Z,52.99
2022-08-03T15:59:03.758Z,51.56
2022-08-03T16:01:20.316Z,51.80
2022-08-03T16:03:47.274Z,52.84
2022-08-03T16:06:14.002Z,53.08
2022-08-03T16:08:40.749Z,51.29
2022-08-03T16:11:07.575Z,51.22
2022-08-03T16:14:11.960Z,51.07
2022-08-03T16:16:21.317Z,51.29
2022-08-03T16:18:48.173Z,50.25
2022-08-03T16:21:15.225Z,49.07
2022-08-03T16:23:47.108Z,49.74
2022-08-03T16:26:14.650Z,49.34
2022-08-03T16:28:41.660Z,50.50
2022-08-03T16:31:09.294Z,50.92
2022-08-03T16:33:36.395Z,50.42
2022-08-03T16:36:03.395Z,50.03
2022-08-03T16:38:30.704Z,50.54
2022-08-03T16:40:57.738Z,49.45
2022-08-03T16:43:24.988Z,48.83
2022-08-03T16:45:52.302Z,48.56
2022-08-03T16:48:19.899Z,47.53
2022-08-03T16:50:47.528Z,47.89
2022-08-03T16:53:15.692Z,47.24
2022-08-03T16:55:52.385Z,44.65
2022-08-03T16:58:34.847Z,42.37
2022-08-03T17:01:21.618Z,40.62
2022-08-03T17:04:01.515Z,39.56
2022-08-03T17:06:35.515Z,38.36
2022-08-03T17:09:08.699Z,37.39
2022-08-03T17:11:38.208Z,36.42
2022-08-03T17:14:09.489Z,36.05
2022-08-03T17:16:38.450Z,35.79
2022-08-03T17:19:07.526Z,35.35
2022-08-03T17:21:39.090Z,35.00
2022-08-03T17:24:23.967Z,34.71
2022-08-03T17:26:53.654Z,34.12
2022-08-03T17:29:25.173Z,33.93
2022-08-03T17:31:53.039Z,33.64
2022-08-03T17:34:20.663Z,33.43
2022-08-03T17:37:27.094Z,33.45
2022-08-03T17:40:00.027Z,33.23
2022-08-03T17:42:30.542Z,33.19
2022-08-03T17:45:02.348Z,32.89
2022-08-03T17:47:42.056Z,32.60
2022-08-03T17:50:25.176Z,32.44
2022-08-03T17:53:07.641Z,32.07
2022-08-03T17:55:54.800Z,32.02
2022-08-03T17:58:54.834Z,31.80
2022-08-03T18:02:06.487Z,31.64
2022-08-03T18:04:41.770Z,31.52
2022-08-03T18:07:12.467Z,31.27
2022-08-03T18:10:04.314Z,31.12
2022-08-03T18:12:40.172Z,30.89
2022-08-03T18:15:21.006Z,30.61
2022-08-03T18:17:55.873Z,30.45
2022-08-03T18:20:34.246Z,30.08
2022-08-03T18:23:06.154Z,29.95
2022-08-03T18:25:42.652Z,29.83
2022-08-03T18:28:18.881Z,29.72
2022-08-03T18:30:54.009Z,29.39
2022-08-03T18:34:19.156Z,29.35
2022-08-03T18:36:17.494Z,29.21
2022-08-03T18:38:49.146Z,29.14
2022-08-03T18:41:21.992Z,29.01
2022-08-03T18:44:08.203Z,28.75
2022-08-03T18:49:40.170Z,28.32
2022-08-03T18:52:17.678Z,28.07
2022-08-03T18:55:04.485Z,27.79
2022-08-03T18:57:49.249Z,27.65
2022-08-03T19:00:24.907Z,27.71
2022-08-03T19:03:12.248Z,27.54
2022-08-03T19:08:49.481Z,27.10
2022-08-03T19:12:13.242Z,27.13
2022-08-03T19:14:36.281Z,26.98
2022-08-03T19:17:09.872Z,26.48
2022-08-03T19:19:44.096Z,26.51
2022-08-03T19:22:15.934Z,26.43
2022-08-03T19:24:45.663Z,26.14
2022-08-03T19:27:12.956Z,25.90
2022-08-03T19:29:59.435Z,25.78
2022-08-03T19:32:29.547Z,25.86
2022-08-03T19:34:59.553Z,25.98
2022-08-03T19:37:38.596Z,25.91
2022-08-03T19:40:10.255Z,25.69
2022-08-03T19:42:44.415Z,25.72
2022-08-03T19:45:14.690Z,25.63
2022-08-03T19:47:45.827Z,25.81
2022-08-03T19:50:14.223Z,25.30
2022-08-03T19:52:43.950Z,25.31
2022-08-03T19:55:12.139Z,25.08
2022-08-03T19:57:42.598Z,25.28
2022-08-03T20:00:12.578Z,25.00
2022-08-03T20:02:41.347Z,24.96
2022-08-03T20:05:15.524Z,25.22
2022-08-03T20:07:47.483Z,25.23
2022-08-03T20:10:16.045Z,25.13
2022-08-03T20:12:44.510Z,25.07
2022-08-03T20:15:12.071Z,24.87
2022-08-03T20:17:56.418Z,24.96
2022-08-03T20:20:27.413Z,25.00
2022-08-03T20:22:57.790Z,24.80
2022-08-03T20:25:38.228Z,24.71
2022-08-03T20:28:13.621Z,24.59
2022-08-03T20:30:43.964Z,24.73
2022-08-03T20:33:11.289Z,24.70
2022-08-03T20:35:38.125Z,24.62
2022-08-03T20:38:09.335Z,24.41
2022-08-03T20:40:36.303Z,24.34
2022-08-03T20:43:04.797Z,24.43
2022-08-03T20:46:00.945Z,24.59
2022-08-03T20:48:18.421Z,24.46
2022-08-03T20:50:49.536Z,24.41
2022-08-03T20:53:56.860Z,24.41
2022-08-03T20:56:05.011Z,24.21
2022-08-03T20:58:35.661Z,24.19
2022-08-03T21:01:03.321Z,24.20
2022-08-03T21:03:40.859Z,24.20
2022-08-03T21:06:27.858Z,24.16
2022-08-03T21:09:00.409Z,24.15
2022-08-03T21:11:41.771Z,24.22
2022-08-03T21:13:01.363Z,27.34
2022-08-03T21:14:37.785Z,24.05
2022-08-03T21:17:14.012Z,23.96
2022-08-03T21:19:52.180Z,23.98
2022-08-03T21:22:23.180Z,23.99
2022-08-03T21:24:55.749Z,23.95
2022-08-03T21:27:23.970Z,23.94
2022-08-03T21:29:53.025Z,23.89
2022-08-03T21:32:32.615Z,23.98
2022-08-03T21:35:01.264Z,23.90
2022-08-03T21:37:29.120Z,23.84
2022-08-03T21:39:56.699Z,23.66
2022-08-03T21:42:24.041Z,23.49
2022-08-03T21:44:54.596Z,23.49
2022-08-03T21:47:23.785Z,23.48
2022-08-03T21:50:08.559Z,23.33
2022-08-03T21:52:41.613Z,23.35
2022-08-03T21:55:09.082Z,23.28
2022-08-03T21:57:53.564Z,23.32
2022-08-03T22:00:23.287Z,23.15
2022-08-03T22:02:57.369Z,23.30
2022-08-03T22:05:42.999Z,23.31
2022-08-03T22:08:14.190Z,23.17
2022-08-03T22:10:43.748Z,23.12
2022-08-03T22:13:11.870Z,23.08
2022-08-03T22:15:38.646Z,22.90
2022-08-03T22:18:05.498Z,23.04
2022-08-03T22:20:32.298Z,22.92
2022-08-03T22:23:05.491Z,22.76
2022-08-03T22:25:35.316Z,22.89
2022-08-03T22:28:11.606Z,22.53
2022-08-03T22:30:40.274Z,22.58
2022-08-03T22:33:11.692Z,22.61
2022-08-03T22:35:44.271Z,22.59
2022-08-03T22:38:15.505Z,22.53
2022-08-03T22:40:42.760Z,22.42
2022-08-03T22:43:09.398Z,22.26
2022-08-03T22:46:07.647Z,22.40
2022-08-03T22:48:23.535Z,22.41
2022-08-03T22:50:50.351Z,22.37
2022-08-03T22:53:22.097Z,22.50
2022-08-03T22:55:49.639Z,22.57
2022-08-03T22:58:16.880Z,22.30
2022-08-03T23:01:05.990Z,22.26
2022-08-03T23:03:58.678Z,22.02
2022-08-03T23:06:26.390Z,21.97
2022-08-03T23:08:54.001Z,22.10
2022-08-03T23:11:23.999Z,22.11
2022-08-03T23:13:54.370Z,22.22
2022-08-03T23:16:28.633Z,22.01
2022-08-03T23:18:58.690Z,22.04
2022-08-03T23:22:00.132Z,21.93
2022-08-03T23:24:26.043Z,21.68
2022-08-03T23:26:57.118Z,21.70
2022-08-03T23:29:23.927Z,21.80
2022-08-03T23:31:52.816Z,21.85
2022-08-03T23:34:37.976Z,21.93
2022-08-03T23:37:05.714Z,21.91
2022-08-03T23:39:35.340Z,21.77
2022-08-03T23:42:03.133Z,21.73
2022-08-03T23:44:36.172Z,21.60
2022-08-03T23:47:02.869Z,21.57
2022-08-03T23:49:29.618Z,21.51
2022-08-03T23:52:17.656Z,21.58
2022-08-03T23:55:06.155Z,21.59
2022-08-03T23:58:00.829Z,21.68
